createdAt,value
2019-04-06T00:00:54.491Z,70.10
2019-04-06T00:03:24.099Z,70.16
2019-04-06T00:05:53.794Z,70.23
2019-04-06T00:08:23.413Z,70.02
2019-04-06T00:10:55.104Z,69.94
2019-04-06T00:13:24.561Z,69.89
2019-04-06T00:15:54.182Z,69.81
2019-04-06T00:18:23.791Z,69.79
2019-04-06T00:20:53.421Z,70.06
2019-04-06T00:23:23.004Z,70.03
2019-04-06T00:25:52.609Z,70.04
2019-04-06T00:28:22.221Z,70.02
2019-04-06T00:30:56.536Z,69.97
2019-04-06T00:33:27.780Z,69.93
2019-04-06T00:35:57.396Z,69.90
2019-04-06T00:38:26.991Z,70.00
2019-04-06T00:40:56.623Z,69.92
2019-04-06T00:43:26.217Z,70.07
2019-04-06T00:45:55.820Z,70.13
2019-04-06T00:48:25.472Z,70.21
2019-04-06T00:50:56.413Z,70.19
2019-04-06T00:53:26.024Z,70.14
2019-04-06T00:55:56.451Z,70.17
2019-04-06T00:58:26.085Z,70.13
2019-04-06T01:00:55.720Z,70.13
2019-04-06T01:03:25.314Z,70.05
2019-04-06T01:05:55.009Z,70.03
2019-04-06T01:08:24.624Z,70.00
2019-04-06T01:10:54.233Z,70.12
2019-04-06T01:13:23.835Z,70.17
2019-04-06T01:15:53.452Z,70.23
2019-04-06T01:18:23.053Z,70.23
2019-04-06T01:20:52.663Z,70.28
2019-04-06T01:23:22.275Z,70.30
2019-04-06T01:25:51.879Z,70.18
2019-04-06T01:28:21.483Z,70.14
2019-04-06T01:30:51.105Z,69.93
2019-04-06T01:33:20.797Z,70.09
2019-04-06T01:35:50.402Z,70.19
2019-04-06T01:38:20.028Z,70.23
2019-04-06T01:40:49.624Z,70.32
2019-04-06T01:43:19.228Z,70.24
2019-04-06T01:45:48.845Z,70.53
2019-04-06T01:48:19.876Z,70.55
2019-04-06T01:50:49.473Z,70.55
2019-04-06T01:53:19.092Z,70.58
2019-04-06T01:55:48.701Z,70.41
2019-04-06T01:58:18.318Z,70.41
2019-04-06T02:00:55.241Z,70.49
2019-04-06T02:03:24.852Z,70.57
2019-04-06T02:05:54.733Z,70.56
2019-04-06T02:08:24.352Z,70.59
2019-04-06T02:10:53.956Z,70.55
2019-04-06T02:13:23.559Z,70.55
2019-04-06T02:15:53.156Z,70.54
2019-04-06T02:18:22.765Z,70.61
2019-04-06T02:20:52.457Z,70.66
2019-04-06T02:23:22.045Z,70.59
2019-04-06T02:25:51.762Z,70.65
2019-04-06T02:28:21.330Z,70.65
2019-04-06T02:30:58.254Z,70.82
2019-04-06T02:33:45.562Z,70.97
2019-04-06T02:36:22.268Z,70.92
2019-04-06T02:39:02.793Z,71.02
2019-04-06T02:41:35.458Z,71.12
2019-04-06T02:44:05.116Z,71.18
2019-04-06T02:46:34.784Z,71.28
2019-04-06T02:49:04.447Z,71.32
2019-04-06T02:51:34.229Z,71.31
2019-04-06T02:54:03.830Z,71.33
2019-04-06T02:56:45.081Z,71.32
2019-04-06T02:59:04.888Z,71.15
2019-04-06T03:01:34.497Z,71.06
2019-04-06T03:04:04.175Z,70.98
2019-04-06T03:06:33.798Z,71.01
2019-04-06T03:09:05.164Z,71.07
2019-04-06T03:11:34.780Z,71.34
2019-04-06T03:14:04.879Z,71.34
2019-04-06T03:16:35.062Z,71.27
2019-04-06T03:19:04.948Z,71.17
2019-04-06T03:21:34.542Z,71.04
2019-04-06T03:24:04.247Z,70.89
2019-04-06T03:26:33.851Z,70.79
2019-04-06T03:29:03.737Z,70.59
2019-04-06T03:31:33.574Z,70.56
2019-04-06T03:34:03.312Z,70.64
2019-04-06T03:36:32.972Z,70.81
2019-04-06T03:39:02.672Z,70.90
2019-04-06T03:41:32.260Z,70.77
2019-04-06T03:44:02.010Z,70.53
2019-04-06T03:46:31.661Z,70.03
2019-04-06T03:49:01.362Z,69.48
2019-04-06T03:51:30.987Z,68.99
2019-04-06T03:54:00.611Z,68.69
2019-04-06T03:56:30.212Z,68.10
2019-04-06T03:58:59.888Z,67.60
2019-04-06T04:01:29.603Z,67.15
2019-04-06T04:03:59.207Z,67.23
2019-04-06T04:06:28.792Z,67.12
2019-04-06T04:08:58.624Z,67.00
2019-04-06T04:11:28.414Z,67.07
2019-04-06T04:13:58.085Z,67.12
2019-04-06T04:16:27.697Z,67.03
2019-04-06T04:18:58.060Z,67.17
2019-04-06T04:21:27.654Z,67.32
2019-04-06T04:23:57.461Z,67.36
2019-04-06T04:26:27.106Z,67.34
2019-04-06T04:28:56.962Z,67.40
2019-04-06T04:31:26.779Z,67.58
2019-04-06T04:33:56.410Z,67.66
2019-04-06T04:36:26.011Z,67.99
2019-04-06T04:38:55.754Z,68.14
2019-04-06T04:41:25.416Z,68.08
2019-04-06T04:43:55.206Z,67.69
2019-04-06T04:46:25.217Z,67.66
2019-04-06T04:48:54.887Z,67.48
2019-04-06T04:51:24.554Z,67.37
2019-04-06T04:53:54.171Z,67.36
2019-04-06T04:56:23.783Z,67.33
2019-04-06T04:58:53.402Z,67.37
2019-04-06T05:01:23.035Z,67.20
2019-04-06T05:03:52.634Z,66.69
2019-04-06T05:06:22.270Z,66.11
2019-04-06T05:08:51.853Z,65.59
2019-04-06T05:11:21.484Z,65.42
2019-04-06T05:13:52.591Z,65.42
2019-04-06T05:16:22.417Z,65.48
2019-04-06T05:18:52.470Z,65.28
2019-04-06T05:21:22.111Z,64.92
2019-04-06T05:23:51.850Z,64.38
2019-04-06T05:26:21.410Z,64.62
2019-04-06T05:28:51.016Z,64.73
2019-04-06T05:31:20.761Z,65.15
2019-04-06T05:33:50.496Z,65.42
2019-04-06T05:36:20.097Z,65.73
2019-04-06T05:38:49.744Z,65.88
2019-04-06T05:41:19.318Z,65.51
2019-04-06T05:43:48.935Z,65.71
2019-04-06T05:46:18.538Z,65.68
2019-04-06T05:48:48.149Z,65.69
2019-04-06T05:51:17.854Z,65.73
2019-04-06T05:53:47.442Z,65.69
2019-04-06T05:56:17.049Z,65.61
2019-04-06T05:58:46.663Z,65.52
2019-04-06T06:01:16.340Z,65.08
2019-04-06T06:03:45.956Z,64.57
2019-04-06T06:06:15.559Z,64.05
2019-04-06T06:08:45.177Z,63.34
2019-04-06T06:11:14.786Z,62.95
2019-04-06T06:13:44.407Z,63.16
2019-04-06T06:16:14.002Z,63.07
2019-04-06T06:18:43.629Z,62.75
2019-04-06T06:21:13.370Z,62.73
2019-04-06T06:23:43.140Z,62.47
2019-04-06T06:26:12.861Z,62.04
2019-04-06T06:28:42.457Z,62.23
2019-04-06T06:31:12.133Z,62.05
2019-04-06T06:33:41.754Z,62.10
2019-04-06T06:36:11.348Z,61.12
2019-04-06T06:38:40.958Z,61.03
2019-04-06T06:41:10.559Z,61.08
2019-04-06T06:43:40.179Z,61.21
2019-04-06T06:46:09.953Z,60.37
2019-04-06T06:48:39.583Z,60.34
2019-04-06T06:51:09.148Z,59.75
2019-04-06T06:53:39.009Z,60.04
2019-04-06T06:56:08.770Z,59.24
2019-04-06T06:58:38.403Z,59.32
2019-04-06T07:01:08.003Z,59.29
2019-04-06T07:03:37.613Z,59.25
2019-04-06T07:06:09.061Z,59.68
2019-04-06T07:08:39.666Z,59.58
2019-04-06T07:11:09.386Z,58.87
2019-04-06T07:13:39.003Z,58.55
2019-04-06T07:16:08.604Z,58.65
2019-04-06T07:18:38.221Z,59.60
2019-04-06T07:21:08.009Z,59.26
2019-04-06T07:23:38.655Z,58.29
2019-04-06T07:26:08.641Z,57.44
2019-04-06T07:28:39.383Z,56.73
2019-04-06T07:31:09.269Z,56.77
2019-04-06T07:33:38.889Z,56.35
2019-04-06T07:36:08.578Z,55.47
2019-04-06T07:38:38.664Z,55.47
2019-04-06T07:41:08.388Z,55.56
2019-04-06T07:43:38.258Z,56.03
2019-04-06T07:46:07.916Z,55.58
2019-04-06T07:48:37.508Z,55.53
2019-04-06T07:51:07.143Z,55.12
2019-04-06T07:53:36.750Z,54.47
2019-04-06T07:56:08.104Z,54.40
2019-04-06T07:58:47.930Z,53.51
2019-04-06T08:01:11.683Z,52.32
2019-04-06T08:03:41.475Z,51.68
2019-04-06T08:06:11.190Z,51.55
2019-04-06T08:08:40.996Z,51.68
2019-04-06T08:11:10.930Z,51.09
2019-04-06T08:13:40.717Z,50.90
2019-04-06T08:16:10.338Z,50.36
2019-04-06T08:18:42.862Z,49.97
2019-04-06T08:21:14.798Z,49.35
2019-04-06T08:23:44.545Z,49.33
2019-04-06T08:26:14.158Z,48.57
2019-04-06T08:28:43.847Z,48.47
2019-04-06T08:31:13.466Z,47.99
2019-04-06T08:33:43.106Z,47.78
2019-04-06T08:36:13.156Z,47.38
2019-04-06T08:38:42.834Z,46.59
2019-04-06T08:41:12.452Z,45.79
2019-04-06T08:43:42.058Z,44.80
2019-04-06T08:46:11.655Z,43.39
2019-04-06T08:48:41.245Z,42.26
2019-04-06T08:51:10.860Z,39.76
2019-04-06T08:53:41.050Z,38.05
2019-04-06T08:56:10.843Z,36.76
2019-04-06T08:58:40.881Z,34.69
2019-04-06T09:01:10.499Z,33.04
2019-04-06T09:03:40.383Z,31.56
2019-04-06T09:06:10.293Z,29.15
2019-04-06T09:08:41.358Z,28.43
2019-04-06T09:11:13.983Z,26.89
2019-04-06T09:13:43.850Z,25.72
2019-04-06T09:16:13.616Z,24.55
2019-04-06T09:18:43.210Z,23.49
2019-04-06T09:21:12.842Z,22.28
2019-04-06T09:23:42.787Z,22.22
2019-04-06T09:26:13.839Z,21.85
2019-04-06T09:28:43.530Z,20.97
2019-04-06T09:31:13.313Z,20.82
2019-04-06T09:33:42.916Z,20.72
2019-04-06T09:36:12.569Z,21.17
2019-04-06T09:38:42.220Z,20.71
2019-04-06T09:41:11.799Z,20.78
2019-04-06T09:43:41.398Z,20.82
2019-04-06T09:46:26.149Z,20.33
2019-04-06T09:49:15.833Z,19.64
2019-04-06T09:51:47.462Z,18.75
2019-04-06T09:54:34.906Z,17.93
2019-04-06T09:57:10.426Z,17.71
2019-04-06T09:59:48.165Z,17.59
2019-04-06T10:02:21.177Z,17.01
2019-04-06T10:05:04.247Z,16.25
2019-04-06T10:07:51.300Z,16.16
2019-04-06T10:10:39.286Z,15.75
2019-04-06T10:13:28.791Z,15.69
2019-04-06T10:16:07.487Z,15.91
2019-04-06T10:18:38.825Z,14.61
2019-04-06T10:21:12.968Z,14.41
2019-04-06T10:23:46.161Z,14.17
2019-04-06T10:26:29.710Z,13.63
2019-04-06T10:28:59.079Z,13.80
2019-04-06T10:31:46.647Z,13.42
2019-04-06T10:34:22.075Z,12.83
2019-04-06T10:37:02.082Z,12.76
2019-04-06T10:39:46.036Z,12.70
2019-04-06T10:42:17.352Z,12.44
2019-04-06T10:44:48.817Z,12.38
2019-04-06T10:47:26.345Z,11.83
2019-04-06T10:50:14.229Z,11.94
2019-04-06T10:52:45.478Z,11.70
2019-04-06T10:55:24.118Z,11.58
2019-04-06T10:58:10.151Z,11.17
2019-04-06T11:00:49.108Z,11.56
2019-04-06T11:03:21.418Z,11.36
2019-04-06T11:05:58.259Z,10.51
2019-04-06T11:08:42.565Z,10.53
2019-04-06T11:11:20.621Z,10.07
2019-04-06T11:13:52.003Z,9.76
2019-04-06T11:16:23.268Z,10.07
2019-04-06T11:18:54.518Z,9.84
2019-04-06T11:21:35.661Z,8.85
2019-04-06T11:24:23.813Z,8.54
2019-04-06T11:27:14.069Z,8.38
2019-04-06T11:29:55.183Z,8.64
2019-04-06T11:32:26.692Z,8.41
2019-04-06T11:35:15.991Z,7.81
2019-04-06T11:37:56.569Z,7.51
2019-04-06T11:40:27.874Z,6.65
2019-04-06T11:43:10.907Z,6.93
2019-04-06T11:45:43.666Z,6.92
2019-04-06T11:48:27.176Z,7.10
2019-04-06T11:51:11.399Z,7.26
2019-04-06T11:53:57.696Z,7.26
2019-04-06T11:56:35.065Z,7.40
2019-04-06T11:59:10.063Z,7.04
2019-04-06T12:01:51.559Z,6.85
2019-04-06T12:04:28.328Z,6.76
2019-04-06T12:07:05.405Z,6.86
2019-04-06T12:09:36.958Z,6.68
2019-04-06T12:12:06.522Z,6.70
2019-04-06T12:14:57.238Z,6.90
2019-04-06T12:17:37.227Z,6.83
2019-04-06T12:20:08.626Z,6.92
2019-04-06T12:22:44.615Z,7.58
2019-04-06T12:25:31.833Z,7.79
2019-04-06T12:28:03.160Z,7.55
2019-04-06T12:30:39.543Z,7.49
2019-04-06T12:33:14.226Z,7.28
2019-04-06T12:35:45.543Z,6.99
2019-04-06T12:38:16.637Z,7.25
2019-04-06T12:41:00.807Z,7.01
2019-04-06T12:43:33.113Z,7.06
2019-04-06T12:46:20.353Z,7.23
2019-04-06T12:48:54.646Z,7.30
2019-04-06T12:51:28.539Z,7.24
2019-04-06T12:54:00.045Z,7.34
2019-04-06T12:56:31.342Z,7.35
2019-04-06T12:59:18.780Z,7.16
2019-04-06T13:01:58.935Z,7.24
2019-04-06T13:04:36.010Z,6.96
2019-04-06T13:07:07.293Z,7.22
2019-04-06T13:09:50.798Z,7.32
2019-04-06T13:12:22.055Z,6.86
2019-04-06T13:14:56.348Z,7.28
2019-04-06T13:17:39.641Z,7.46
2019-04-06T13:20:28.220Z,7.73
2019-04-06T13:23:08.209Z,7.30
2019-04-06T13:25:56.498Z,7.15
2019-04-06T13:28:44.134Z,7.18
2019-04-06T13:31:24.599Z,7.21
2019-04-06T13:33:58.708Z,7.07
2019-04-06T13:36:29.985Z,6.85
2019-04-06T13:39:04.059Z,6.53
2019-04-06T13:41:41.327Z,6.50
2019-04-06T13:44:15.836Z,6.68
2019-04-06T13:46:47.175Z,6.69
2019-04-06T13:49:30.150Z,6.83
2019-04-06T13:52:01.495Z,6.64
2019-04-06T13:54:41.366Z,6.68
2019-04-06T13:57:18.223Z,6.81
2019-04-06T13:59:52.236Z,6.99
2019-04-06T14:02:35.508Z,7.23
2019-04-06T14:05:08.463Z,8.62
2019-04-06T14:07:42.267Z,11.51
2019-04-06T14:10:29.816Z,12.28
2019-04-06T14:13:18.014Z,10.84
2019-04-06T14:15:57.998Z,11.13
2019-04-06T14:18:29.246Z,10.41
2019-04-06T14:21:00.493Z,11.13
2019-04-06T14:23:31.820Z,12.79
2019-04-06T14:26:04.252Z,15.45
2019-04-06T14:28:50.509Z,16.84
2019-04-06T14:31:28.417Z,18.06
2019-04-06T14:34:00.854Z,18.75
2019-04-06T14:36:37.558Z,19.01
2019-04-06T14:39:26.180Z,19.95
2019-04-06T14:42:03.821Z,20.72
2019-04-06T14:44:37.267Z,21.25
2019-04-06T14:47:21.692Z,21.43
2019-04-06T14:50:02.141Z,21.46
2019-04-06T14:52:45.286Z,22.03
2019-04-06T14:55:25.560Z,22.27
2019-04-06T14:58:04.101Z,22.44
2019-04-06T15:00:48.610Z,23.21
2019-04-06T15:03:32.842Z,23.47
2019-04-06T15:06:12.958Z,23.90
2019-04-06T15:08:53.114Z,24.29
2019-04-06T15:11:29.350Z,23.07
2019-04-06T15:14:06.389Z,23.10
2019-04-06T15:16:40.475Z,23.06
2019-04-06T15:19:25.058Z,23.81
2019-04-06T15:22:05.444Z,24.16
2019-04-06T15:24:52.593Z,24.17
2019-04-06T15:27:21.989Z,23.84
2019-04-06T15:29:54.190Z,23.58
2019-04-06T15:32:37.264Z,23.31
2019-04-06T15:35:09.834Z,23.38
2019-04-06T15:37:40.917Z,23.66
2019-04-06T15:40:15.269Z,23.21
2019-04-06T15:42:46.935Z,23.50
2019-04-06T15:45:18.361Z,23.62
2019-04-06T15:48:03.009Z,24.10
2019-04-06T15:50:50.146Z,24.16
2019-04-06T15:53:27.039Z,23.70
2019-04-06T15:56:13.959Z,23.62
2019-04-06T15:59:01.193Z,23.81
2019-04-06T16:01:32.886Z,23.89
2019-04-06T16:04:04.899Z,23.62
2019-04-06T16:06:36.158Z,23.83
2019-04-06T16:09:21.225Z,24.07
2019-04-06T16:11:52.426Z,24.39
2019-04-06T16:14:29.564Z,24.58
2019-04-06T16:17:06.332Z,24.94
2019-04-06T16:19:38.536Z,24.95
2019-04-06T16:22:24.806Z,25.13
2019-04-06T16:24:56.130Z,25.23
2019-04-06T16:27:27.396Z,25.54
2019-04-06T16:30:02.335Z,25.88
2019-04-06T16:32:34.460Z,25.93
2019-04-06T16:35:07.278Z,26.41
2019-04-06T16:37:44.186Z,26.42
2019-04-06T16:40:21.395Z,26.59
2019-04-06T16:42:55.291Z,27.11
2019-04-06T16:45:26.213Z,27.56
2019-04-06T16:48:01.630Z,27.55
2019-04-06T16:50:39.912Z,27.47
2019-04-06T16:53:19.816Z,28.00
2019-04-06T16:56:07.035Z,28.00
2019-04-06T16:58:41.160Z,28.39
2019-04-06T17:01:13.265Z,28.54
2019-04-06T17:03:44.527Z,28.67
2019-04-06T17:06:22.551Z,28.61
2019-04-06T17:09:09.072Z,28.40
2019-04-06T17:11:56.115Z,28.67
2019-04-06T17:14:33.368Z,28.99
2019-04-06T17:17:23.218Z,28.56
2019-04-06T17:20:10.377Z,28.86
2019-04-06T17:22:44.145Z,29.33
2019-04-06T17:25:15.075Z,29.88
2019-04-06T17:27:46.532Z,30.16
2019-04-06T17:30:23.994Z,30.10
2019-04-06T17:33:12.001Z,30.57
2019-04-06T17:36:01.065Z,30.65
2019-04-06T17:38:44.247Z,30.35
2019-04-06T17:41:16.057Z,30.31
2019-04-06T17:43:47.620Z,30.14
2019-04-06T17:46:25.602Z,30.16
2019-04-06T17:49:03.457Z,30.32
2019-04-06T17:51:38.947Z,30.51
2019-04-06T17:54:26.625Z,30.98
2019-04-06T17:56:58.504Z,31.32
2019-04-06T17:59:45.021Z,31.89
2019-04-06T18:02:28.419Z,31.87
2019-04-06T18:04:59.737Z,32.36
2019-04-06T18:07:37.799Z,32.40
2019-04-06T18:10:15.319Z,32.78
2019-04-06T18:13:02.771Z,33.12
2019-04-06T18:15:32.501Z,33.22
2019-04-06T18:18:02.103Z,33.28
2019-04-06T18:20:32.560Z,33.50
2019-04-06T18:23:02.692Z,33.70
2019-04-06T18:25:32.332Z,33.80
2019-04-06T18:28:02.764Z,34.06
2019-04-06T18:30:34.186Z,34.11
2019-04-06T18:33:18.395Z,34.14
2019-04-06T18:35:48.491Z,34.31
2019-04-06T18:38:25.391Z,34.55
2019-04-06T18:40:55.165Z,34.82
2019-04-06T18:43:25.109Z,35.20
2019-04-06T18:45:54.699Z,35.45
2019-04-06T18:48:24.794Z,35.54
2019-04-06T18:50:54.463Z,35.75
2019-04-06T18:53:24.581Z,35.91
2019-04-06T18:55:54.166Z,36.15
2019-04-06T18:58:24.198Z,36.46
2019-04-06T19:00:54.022Z,36.54
2019-04-06T19:03:24.156Z,36.88
2019-04-06T19:05:53.755Z,37.16
2019-04-06T19:08:23.402Z,37.43
2019-04-06T19:10:55.295Z,37.90
2019-04-06T19:13:24.860Z,38.15
2019-04-06T19:15:54.588Z,38.45
2019-04-06T19:18:25.337Z,38.64
2019-04-06T19:20:55.113Z,38.85
2019-04-06T19:23:25.146Z,39.05
2019-04-06T19:25:54.803Z,39.14
2019-04-06T19:28:26.427Z,39.31
2019-04-06T19:30:55.787Z,39.61
2019-04-06T19:33:26.101Z,39.65
2019-04-06T19:35:57.461Z,39.94
2019-04-06T19:38:27.282Z,40.36
2019-04-06T19:40:57.897Z,40.82
2019-04-06T19:43:27.547Z,41.48
2019-04-06T19:45:57.685Z,42.26
2019-04-06T19:48:27.430Z,42.46
2019-04-06T19:50:57.158Z,42.66
2019-04-06T19:53:26.779Z,42.89
2019-04-06T19:55:58.658Z,43.29
2019-04-06T19:58:28.267Z,43.62
2019-04-06T20:00:57.962Z,43.65
2019-04-06T20:03:35.504Z,43.88
2019-04-06T20:06:00.831Z,44.16
2019-04-06T20:08:31.159Z,44.37
2019-04-06T20:11:00.991Z,44.68
2019-04-06T20:13:30.737Z,44.95
2019-04-06T20:16:00.834Z,45.10
2019-04-06T20:18:30.646Z,45.45
2019-04-06T20:21:00.870Z,45.75
2019-04-06T20:23:30.619Z,45.96
2019-04-06T20:26:00.401Z,46.12
2019-04-06T20:28:33.668Z,46.32
2019-04-06T20:31:05.285Z,46.71
2019-04-06T20:33:46.391Z,46.72
2019-04-06T20:36:09.158Z,46.96
2019-04-06T20:38:47.441Z,47.14
2019-04-06T20:41:17.321Z,47.33
2019-04-06T20:43:48.655Z,47.86
2019-04-06T20:46:20.095Z,47.69
2019-04-06T20:48:52.639Z,47.99
2019-04-06T20:51:24.065Z,48.07
2019-04-06T20:53:53.662Z,48.33
2019-04-06T20:56:28.253Z,48.66
2019-04-06T20:59:01.505Z,48.92
2019-04-06T21:01:32.321Z,48.93
2019-04-06T21:04:03.106Z,49.15
2019-04-06T21:06:33.868Z,49.33
2019-04-06T21:09:05.526Z,49.39
2019-04-06T21:11:35.735Z,49.70
2019-04-06T21:14:05.675Z,49.89
2019-04-06T21:16:35.908Z,49.95
2019-04-06T21:19:05.521Z,50.47
2019-04-06T21:21:35.311Z,50.77
2019-04-06T21:24:05.383Z,51.04
2019-04-06T21:26:35.024Z,51.12
2019-04-06T21:29:04.896Z,51.24
2019-04-06T21:31:35.222Z,51.49
2019-04-06T21:34:12.059Z,51.69
2019-04-06T21:36:38.469Z,51.83
2019-04-06T21:39:09.736Z,51.84
2019-04-06T21:41:40.958Z,51.95
2019-04-06T21:44:11.237Z,51.94
2019-04-06T21:46:41.382Z,52.04
2019-04-06T21:49:14.549Z,52.13
2019-04-06T21:51:45.916Z,52.25
2019-04-06T21:54:18.313Z,52.29
2019-04-06T21:56:47.952Z,52.35
2019-04-06T21:59:20.834Z,52.36
2019-04-06T22:01:51.459Z,52.59
2019-04-06T22:04:26.672Z,52.64
2019-04-06T22:06:59.056Z,52.57
2019-04-06T22:09:28.819Z,52.67
2019-04-06T22:11:58.519Z,52.73
2019-04-06T22:14:28.362Z,53.08
2019-04-06T22:16:58.385Z,53.20
2019-04-06T22:19:28.220Z,53.40
2019-04-06T22:21:57.882Z,53.48
2019-04-06T22:24:27.508Z,53.42
2019-04-06T22:26:57.405Z,53.50
2019-04-06T22:29:27.556Z,53.67
2019-04-06T22:31:57.335Z,53.77
2019-04-06T22:34:37.152Z,53.84
2019-04-06T22:37:00.895Z,53.89
2019-04-06T22:39:30.694Z,53.87
2019-04-06T22:42:02.137Z,53.94
2019-04-06T22:44:31.849Z,53.97
2019-04-06T22:47:03.649Z,53.77
2019-04-06T22:49:33.855Z,53.83
2019-04-06T22:52:04.486Z,53.78
2019-04-06T22:54:34.511Z,53.80
2019-04-06T22:57:04.368Z,54.32
2019-04-06T22:59:34.649Z,54.78
2019-04-06T23:02:05.455Z,54.75
2019-04-06T23:04:46.681Z,55.03
2019-04-06T23:07:09.687Z,55.04
2019-04-06T23:09:39.296Z,55.20
2019-04-06T23:12:10.175Z,55.36
2019-04-06T23:14:39.997Z,55.56
2019-04-06T23:17:10.235Z,55.74
2019-04-06T23:19:39.844Z,55.87
2019-04-06T23:22:09.484Z,55.93
2019-04-06T23:24:39.729Z,56.11
2019-04-06T23:27:09.887Z,56.29
2019-04-06T23:29:39.528Z,56.36
2019-04-06T23:32:09.153Z,56.24
2019-04-06T23:34:38.809Z,56.47
2019-04-06T23:37:08.438Z,56.66
2019-04-06T23:39:40.047Z,56.57
2019-04-06T23:42:11.211Z,56.70
2019-04-06T23:44:40.934Z,56.92
2019-04-06T23:47:10.531Z,57.20
2019-04-06T23:49:40.730Z,57.57
2019-04-06T23:52:10.474Z,57.80
2019-04-06T23:54:40.086Z,58.19
2019-04-06T23:57:10.158Z,58.51
2019-04-06T23:59:39.816Z,58.96
